Time;durP1;ratioP1;P1;durP2;ratioP2;P2;SDS_P1;SDS_P2;PMS_P1;PMS_P2;Temp;Humidity;BMP_temperature;BMP_pressure;BME280_temperature;BME280_humidity;BME280_pressure;Samples;Min_cycle;Max_cycle;Signal;HPM_P1;HPM_P2
2023/01/31 00:02:12;;;;;;;;;;;;;;;;;;4919654;29;19919;-90
2023/01/31 00:04:41;;;;;;;;;;;;;;;;;;4919347;29;19968;-88
2023/01/31 00:07:06;;;;;;;;;;;;;;;;;;4903334;29;19941;-91
2023/01/31 00:09:31;;;;;;;;;;;;;;;;;;4919836;29;20442;-91
2023/01/31 00:11:57;;;;;;;;;;;;;;;;;;4919595;29;19955;-87
2023/01/31 00:14:23;;;;;;;;;;;;;;;;;;4919469;29;19927;-91
2023/01/31 00:16:49;;;;;;;;;;;;;;;;;;4902404;29;19962;-93
2023/01/31 00:19:14;;;;;;;;;;;;;;;;;;4902242;29;19969;-89
2023/01/31 00:21:42;;;;;;;;;;;;;;;;;;4919491;29;19926;-87
2023/01/31 00:24:08;;;;;;;;;;;;;;;;;;4919402;29;19919;-90
2023/01/31 00:26:34;;;;;;;;;;;;;;;;;;4919146;29;20060;-90
2023/01/31 00:29:00;;;;;;;;;;;;;;;;;;4919048;29;19927;-89
2023/01/31 00:31:26;;;;;;;;;;;;;;;;;;4919029;29;19923;-91
2023/01/31 00:33:53;;;;;;;;;;;;;;;;;;4902024;29;19930;-90
2023/01/31 00:36:20;;;;;;;;;;;;;;;;;;4918931;29;19919;-92
2023/01/31 00:38:55;;;;;;;;;;;;;;;;;;4902894;29;19974;-86
2023/01/31 00:41:33;;;;;;;;;;;;;;;;;;4904540;29;19926;-85
2023/01/31 00:53:27;;;;;;;;;;;;;;;;;;4787339;29;20028;-86
2023/01/31 00:55:53;;;;;;;;;;;;;;;;;;4823223;29;20448;-86
2023/01/31 00:58:19;;;;;;;;;;;;;;;;;;4823623;29;20329;-86
2023/01/31 01:00:45;;;;;;;;;;;;;;;;;;4808173;29;19920;-87
2023/01/31 01:03:10;;;;;;;;;;;;;;;;;;4808213;29;19928;-85
2023/01/31 01:05:36;;;;;;;;;;;;;;;;;;4808059;29;19928;-87
2023/01/31 01:08:01;;;;;;;;;;;;;;;;;;4823344;29;19921;-85
2023/01/31 01:10:27;;;;;;;;;;;;;;;;;;4823375;29;20425;-86
2023/01/31 01:12:52;;;;;;;;;;;;;;;;;;4807885;29;19921;-86
2023/01/31 01:15:17;;;;;;;;;;;;;;;;;;4807590;29;20023;-88
2023/01/31 01:17:43;;;;;;;;;;;;;;;;;;4823215;29;20000;-85
2023/01/31 01:20:08;;;;;;;;;;;;;;;;;;4822787;29;19920;-87
2023/01/31 01:22:35;;;;;;;;;;;;;;;;;;4823147;29;19925;-85
2023/01/31 01:25:01;;;;;;;;;;;;;;;;;;4822957;29;20012;-87
2023/01/31 01:27:26;;;;;;;;;;;;;;;;;;4897249;29;19951;-86
2023/01/31 01:29:52;;;;;;;;;;;;;;;;;;4917717;29;19919;-85
2023/01/31 01:32:17;;;;;;;;;;;;;;;;;;4917685;29;19926;-86
2023/01/31 01:34:43;;;;;;;;;;;;;;;;;;4917705;29;19926;-86
2023/01/31 01:37:10;;;;;;;;;;;;;;;;;;4900531;29;19925;-86
2023/01/31 01:39:37;;;;;;;;;;;;;;;;;;4900624;29;19927;-87
2023/01/31 01:42:02;;;;;;;;;;;;;;;;;;4917104;29;19983;-85
2023/01/31 01:44:46;;;;;;;;;;;;;;;;;;4917701;29;19919;-85
2023/01/31 01:47:18;;;;;;;;;;;;;;;;;;4900512;29;19923;-87
2023/01/31 01:49:45;;;;;;;;;;;;;;;;;;4917432;29;19919;-86
2023/01/31 01:52:12;;;;;;;;;;;;;;;;;;4900448;29;19923;-86
2023/01/31 01:54:42;;;;;;;;;;;;;;;;;;4900349;29;19929;-89
2023/01/31 01:57:07;;;;;;;;;;;;;;;;;;4900380;29;19923;-87
2023/01/31 01:59:35;;;;;;;;;;;;;;;;;;4900473;29;20335;-86
2023/01/31 02:02:02;;;;;;;;;;;;;;;;;;4917269;29;19919;-88
2023/01/31 02:04:30;;;;;;;;;;;;;;;;;;4917274;29;19930;-86
2023/01/31 02:06:56;;;;;;;;;;;;;;;;;;4900339;29;19930;-85
2023/01/31 02:09:31;;;;;;;;;;;;;;;;;;4917166;29;19919;-86
2023/01/31 02:11:57;;;;;;;;;;;;;;;;;;4900099;29;19926;-86
2023/01/31 02:14:23;;;;;;;;;;;;;;;;;;4899997;29;19927;-86
2023/01/31 02:16:48;;;;;;;;;;;;;;;;;;4917157;29;19919;-87
2023/01/31 02:19:20;;;;;;;;;;;;;;;;;;4917154;29;19926;-86
2023/01/31 02:21:57;;;;;;;;;;;;;;;;;;4900077;29;20015;-85
2023/01/31 02:24:42;;;;;;;;;;;;;;;;;;4900052;29;19926;-88
2023/01/31 02:27:26;;;;;;;;;;;;;;;;;;4900169;29;20372;-87
2023/01/31 02:30:09;;;;;;;;;;;;;;;;;;4916979;29;19919;-86
2023/01/31 02:32:45;;;;;;;;;;;;;;;;;;4900020;29;19974;-89
2023/01/31 02:35:46;;;;;;;;;;;;;;;;;;4916822;29;20491;-87
2023/01/31 02:38:26;;;;;;;;;;;;;;;;;;4843484;29;19920;-91
2023/01/31 02:41:03;;;;;;;;;;;;;;;;;;4894124;29;19919;-90
2023/01/31 02:44:58;;;;;;;;;;;;;;;;;;4900214;29;20379;-87
2023/01/31 02:46:30;;;;;;;;;;;;;;;;;;4917055;29;19919;-90
2023/01/31 02:49:00;;;;;;;;;;;;;;;;;;4917130;29;20030;-91
2023/01/31 02:51:32;;;;;;;;;;;;;;;;;;4917091;29;19965;-90
2023/01/31 02:54:01;;;;;;;;;;;;;;;;;;4919629;29;19919;-85
2023/01/31 02:56:28;;;;;;;;;;;;;;;;;;4920592;29;20261;-88
2023/01/31 02:59:11;;;;;;;;;;;;;;;;;;4903458;29;20017;-86
2023/01/31 03:01:38;;;;;;;;;;;;;;;;;;4920544;29;19923;-89
2023/01/31 03:04:06;;;;;;;;;;;;;;;;;;4903392;29;19926;-85
2023/01/31 03:06:34;;;;;;;;;;;;;;;;;;4920411;29;20018;-85
2023/01/31 03:09:06;;;;;;;;;;;;;;;;;;4920265;29;20375;-86
2023/01/31 03:11:43;;;;;;;;;;;;;;;;;;4903506;29;19931;-91
2023/01/31 03:14:12;;;;;;;;;;;;;;;;;;4903078;29;19919;-89
2023/01/31 03:20:11;;;;;;;;;;;;;;;;;;4919926;29;19943;-86
2023/01/31 03:22:55;;;;;;;;;;;;;;;;;;4917583;29;20371;-85
2023/01/31 03:25:23;;;;;;;;;;;;;;;;;;4920237;29;19920;-87
2023/01/31 03:27:51;;;;;;;;;;;;;;;;;;4903226;29;19954;-88
2023/01/31 03:30:25;;;;;;;;;;;;;;;;;;4903364;29;19925;-89
2023/01/31 03:32:56;;;;;;;;;;;;;;;;;;4920321;29;19919;-88
2023/01/31 03:35:24;;;;;;;;;;;;;;;;;;4920067;29;20395;-88
2023/01/31 03:37:54;;;;;;;;;;;;;;;;;;4920038;29;19923;-88
2023/01/31 03:40:24;;;;;;;;;;;;;;;;;;4920219;29;19990;-91
2023/01/31 03:43:00;;;;;;;;;;;;;;;;;;4920101;29;19919;-91
2023/01/31 03:45:40;;;;;;;;;;;;;;;;;;4919974;29;19927;-88
2023/01/31 03:48:12;;;;;;;;;;;;;;;;;;4919904;29;19930;-88
2023/01/31 03:50:43;;;;;;;;;;;;;;;;;;4919802;29;19919;-90
2023/01/31 03:53:11;;;;;;;;;;;;;;;;;;4903029;29;20336;-91
2023/01/31 03:55:55;;;;;;;;;;;;;;;;;;4919504;29;20309;-87
2023/01/31 03:58:24;;;;;;;;;;;;;;;;;;4919542;29;19958;-86
2023/01/31 04:00:51;;;;;;;;;;;;;;;;;;4919555;29;19919;-89
2023/01/31 04:03:23;;;;;;;;;;;;;;;;;;4919302;29;19919;-91
2023/01/31 04:05:49;;;;;;;;;;;;;;;;;;4919907;29;20017;-90
2023/01/31 04:08:15;;;;;;;;;;;;;;;;;;4920052;29;19954;-90
2023/01/31 04:10:40;;;;;;;;;;;;;;;;;;4902986;29;19926;-91
2023/01/31 04:13:06;;;;;;;;;;;;;;;;;;4902393;29;20252;-90
2023/01/31 04:15:31;;;;;;;;;;;;;;;;;;4919206;29;19961;-87
2023/01/31 04:17:57;;;;;;;;;;;;;;;;;;4919381;29;20430;-90
2023/01/31 04:20:22;;;;;;;;;;;;;;;;;;4919291;29;20442;-88
2023/01/31 04:22:47;;;;;;;;;;;;;;;;;;4902264;29;19919;-86
2023/01/31 04:25:13;;;;;;;;;;;;;;;;;;4932765;29;19907;-87
2023/01/31 04:27:38;;;;;;;;;;;;;;;;;;4938119;29;19923;-88
2023/01/31 04:30:04;;;;;;;;;;;;;;;;;;4914293;29;19903;-85
2023/01/31 04:32:30;;;;;;;;;;;;;;;;;;4940774;29;19919;-88
2023/01/31 04:34:55;;;;;;;;;;;;;;;;;;4937276;29;20486;-84
2023/01/31 04:37:20;;;;;;;;;;;;;;;;;;4921315;29;19919;-85
2023/01/31 04:39:46;;;;;;;;;;;;;;;;;;4919267;29;20002;-85
2023/01/31 04:42:11;;;;;;;;;;;;;;;;;;4919104;29;19954;-87
2023/01/31 04:44:37;;;;;;;;;;;;;;;;;;4901470;29;19934;-84
2023/01/31 04:47:02;;;;;;;;;;;;;;;;;;4918629;29;20298;-85
2023/01/31 04:49:28;;;;;;;;;;;;;;;;;;4918646;29;19923;-86
2023/01/31 04:51:53;;;;;;;;;;;;;;;;;;4918447;29;19919;-86
2023/01/31 04:54:18;;;;;;;;;;;;;;;;;;4918487;29;19919;-88
2023/01/31 04:56:44;;;;;;;;;;;;;;;;;;4918105;29;19919;-86
2023/01/31 04:59:09;;;;;;;;;;;;;;;;;;4901377;29;19977;-85
2023/01/31 05:01:35;;;;;;;;;;;;;;;;;;4918198;29;19930;-85
2023/01/31 05:04:00;;;;;;;;;;;;;;;;;;4918278;29;19919;-85
2023/01/31 05:06:25;;;;;;;;;;;;;;;;;;4901257;29;20417;-86
2023/01/31 05:08:53;;;;;;;;;;;;;;;;;;4918158;29;20345;-88
2023/01/31 05:11:18;;;;;;;;;;;;;;;;;;4918160;29;20291;-89
2023/01/31 05:13:44;;;;;;;;;;;;;;;;;;4918325;29;19923;-90
2023/01/31 05:16:10;;;;;;;;;;;;;;;;;;4917221;29;20401;-89
2023/01/31 05:18:36;;;;;;;;;;;;;;;;;;4918180;29;20451;-89
2023/01/31 05:21:02;;;;;;;;;;;;;;;;;;4918229;29;19962;-90
2023/01/31 05:23:28;;;;;;;;;;;;;;;;;;4918233;29;19967;-89
2023/01/31 05:25:53;;;;;;;;;;;;;;;;;;4918135;29;19919;-88
2023/01/31 05:28:19;;;;;;;;;;;;;;;;;;4918222;29;19919;-89
2023/01/31 05:30:44;;;;;;;;;;;;;;;;;;4917892;29;19926;-88
2023/01/31 05:33:10;;;;;;;;;;;;;;;;;;4917969;29;20013;-91
2023/01/31 05:35:37;;;;;;;;;;;;;;;;;;4900908;29;19927;-92
2023/01/31 05:38:03;;;;;;;;;;;;;;;;;;4900758;29;20022;-87
2023/01/31 05:40:28;;;;;;;;;;;;;;;;;;4917741;29;19950;-84
2023/01/31 05:42:54;;;;;;;;;;;;;;;;;;4917522;29;20452;-86
2023/01/31 05:45:20;;;;;;;;;;;;;;;;;;4900531;29;19926;-86
2023/01/31 05:47:46;;;;;;;;;;;;;;;;;;4900439;29;19923;-85
2023/01/31 05:50:11;;;;;;;;;;;;;;;;;;4917542;29;19927;-86
2023/01/31 05:52:37;;;;;;;;;;;;;;;;;;4900408;29;19977;-87
2023/01/31 05:55:02;;;;;;;;;;;;;;;;;;4917601;29;19919;-87
2023/01/31 05:57:28;;;;;;;;;;;;;;;;;;4917417;29;19919;-86
2023/01/31 05:59:53;;;;;;;;;;;;;;;;;;4900693;29;19920;-85
2023/01/31 06:02:18;;;;;;;;;;;;;;;;;;4917300;29;19927;-87
2023/01/31 06:04:44;;;;;;;;;;;;;;;;;;4917313;29;19919;-86
2023/01/31 06:07:09;;;;;;;;;;;;;;;;;;4917282;29;19923;-86
2023/01/31 06:09:37;;;;;;;;;;;;;;;;;;4917404;29;19979;-88
2023/01/31 06:12:03;;;;;;;;;;;;;;;;;;4900239;29;19919;-85
2023/01/31 06:14:28;;;;;;;;;;;;;;;;;;4917013;29;19927;-88
2023/01/31 06:16:54;;;;;;;;;;;;;;;;;;4917268;29;20287;-89
2023/01/31 06:19:24;;;;;;;;;;;;;;;;;;4917306;29;19919;-88
2023/01/31 06:21:49;;;;;;;;;;;;;;;;;;4900263;29;19978;-88
2023/01/31 06:24:15;;;;;;;;;;;;;;;;;;4900358;29;19915;-91
2023/01/31 06:26:40;;;;;;;;;;;;;;;;;;4917501;29;19923;-92
2023/01/31 06:29:07;;;;;;;;;;;;;;;;;;4917362;29;20298;-88
2023/01/31 06:31:32;;;;;;;;;;;;;;;;;;4917332;29;19942;-87
2023/01/31 06:33:58;;;;;;;;;;;;;;;;;;4916955;29;20391;-89
2023/01/31 06:36:23;;;;;;;;;;;;;;;;;;4916922;29;20274;-90
2023/01/31 06:38:49;;;;;;;;;;;;;;;;;;4900104;29;19919;-87
2023/01/31 06:41:15;;;;;;;;;;;;;;;;;;4916911;29;19942;-85
2023/01/31 06:43:40;;;;;;;;;;;;;;;;;;4917024;29;19983;-88
2023/01/31 06:46:06;;;;;;;;;;;;;;;;;;4916869;29;19942;-88
2023/01/31 06:48:31;;;;;;;;;;;;;;;;;;4916867;29;19915;-88
2023/01/31 06:50:56;;;;;;;;;;;;;;;;;;4916931;29;19954;-91
2023/01/31 06:53:22;;;;;;;;;;;;;;;;;;4917110;29;20366;-89
2023/01/31 06:55:47;;;;;;;;;;;;;;;;;;4916996;29;19919;-91
2023/01/31 06:58:13;;;;;;;;;;;;;;;;;;4917152;29;19974;-92
2023/01/31 07:00:38;;;;;;;;;;;;;;;;;;4916880;29;20307;-88
2023/01/31 07:03:03;;;;;;;;;;;;;;;;;;4916847;29;19942;-86
2023/01/31 07:05:29;;;;;;;;;;;;;;;;;;4916587;29;19927;-85
2023/01/31 07:07:54;;;;;;;;;;;;;;;;;;4916678;29;20339;-84
2023/01/31 07:10:20;;;;;;;;;;;;;;;;;;4916637;29;19919;-84
2023/01/31 07:12:45;;;;;;;;;;;;;;;;;;4916573;29;19930;-84
2023/01/31 07:15:11;;;;;;;;;;;;;;;;;;4912536;29;19934;-85
2023/01/31 07:17:36;;;;;;;;;;;;;;;;;;4897704;29;19924;-85
2023/01/31 07:20:02;;;;;;;;;;;;;;;;;;4897649;29;19986;-85
2023/01/31 07:22:27;;;;;;;;;;;;;;;;;;4897743;29;19979;-85
2023/01/31 07:24:55;;;;;;;;;;;;;;;;;;4896834;29;21346;-85
2023/01/31 07:27:20;;;;;;;;;;;;;;;;;;4897863;29;19919;-86
2023/01/31 07:29:45;;;;;;;;;;;;;;;;;;4897617;29;19927;-85
2023/01/31 07:32:11;;;;;;;;;;;;;;;;;;4880814;29;20333;-86
2023/01/31 07:34:37;;;;;;;;;;;;;;;;;;4880688;29;19955;-85
2023/01/31 07:37:02;;;;;;;;;;;;;;;;;;4897539;29;19941;-85
2023/01/31 07:39:28;;;;;;;;;;;;;;;;;;4899150;29;20394;-87
2023/01/31 07:41:53;;;;;;;;;;;;;;;;;;4900908;29;19919;-85
2023/01/31 07:44:19;;;;;;;;;;;;;;;;;;4900880;29;19930;-86
2023/01/31 07:46:44;;;;;;;;;;;;;;;;;;4900928;29;19979;-85
2023/01/31 07:49:10;;;;;;;;;;;;;;;;;;4900808;29;19919;-86
2023/01/31 07:51:37;;;;;;;;;;;;;;;;;;4900660;29;19924;-87
2023/01/31 07:54:03;;;;;;;;;;;;;;;;;;4900653;29;20364;-86
2023/01/31 07:56:28;;;;;;;;;;;;;;;;;;4900580;29;19927;-85
2023/01/31 07:58:54;;;;;;;;;;;;;;;;;;4900547;29;19919;-87
2023/01/31 08:04:06;;;;;;;;;;;;;;;;;;4900900;29;19921;-87
2023/01/31 08:06:31;;;;;;;;;;;;;;;;;;4883766;29;19919;-85
2023/01/31 08:08:57;;;;;;;;;;;;;;;;;;4900523;29;20643;-90
2023/01/31 08:11:23;;;;;;;;;;;;;;;;;;4900292;29;20006;-88
2023/01/31 08:13:49;;;;;;;;;;;;;;;;;;4898705;29;19916;-87
2023/01/31 08:16:15;;;;;;;;;;;;;;;;;;4891769;29;20038;-85
2023/01/31 08:18:40;;;;;;;;;;;;;;;;;;4919259;29;19923;-85
2023/01/31 08:21:06;;;;;;;;;;;;;;;;;;4902082;29;19994;-85
2023/01/31 08:23:31;;;;;;;;;;;;;;;;;;4919004;29;19919;-84
2023/01/31 08:26:00;;;;;;;;;;;;;;;;;;4919092;29;19923;-86
2023/01/31 08:28:25;;;;;;;;;;;;;;;;;;4918880;29;19930;-86
2023/01/31 08:30:51;;;;;;;;;;;;;;;;;;4918901;29;19945;-85
2023/01/31 08:33:16;;;;;;;;;;;;;;;;;;4918884;29;19919;-86
2023/01/31 08:35:42;;;;;;;;;;;;;;;;;;4918724;29;20700;-88
2023/01/31 08:38:07;;;;;;;;;;;;;;;;;;4918892;29;19925;-84
2023/01/31 08:40:32;;;;;;;;;;;;;;;;;;4919027;29;20021;-85
2023/01/31 08:43:02;;;;;;;;;;;;;;;;;;4902030;29;19915;-85
2023/01/31 08:45:28;;;;;;;;;;;;;;;;;;4901952;29;19926;-85
2023/01/31 08:47:55;;;;;;;;;;;;;;;;;;4919190;29;19923;-85
2023/01/31 08:50:20;;;;;;;;;;;;;;;;;;4918052;29;19919;-86
2023/01/31 08:52:46;;;;;;;;;;;;;;;;;;4918806;29;20410;-85
2023/01/31 08:55:12;;;;;;;;;;;;;;;;;;4918486;29;19919;-86
2023/01/31 08:57:39;;;;;;;;;;;;;;;;;;4918496;29;19919;-84
2023/01/31 09:00:05;;;;;;;;;;;;;;;;;;4918616;29;19931;-85
2023/01/31 09:02:31;;;;;;;;;;;;;;;;;;4901664;29;20303;-86
2023/01/31 09:04:56;;;;;;;;;;;;;;;;;;4928937;29;19923;-85
2023/01/31 09:07:22;;;;;;;;;;;;;;;;;;4914082;29;19925;-85
2023/01/31 09:09:48;;;;;;;;;;;;;;;;;;4932406;29;19920;-86
2023/01/31 09:12:13;;;;;;;;;;;;;;;;;;4929639;29;19919;-87
2023/01/31 09:14:39;;;;;;;;;;;;;;;;;;4919564;29;20394;-85
2023/01/31 09:17:06;;;;;;;;;;;;;;;;;;4918393;29;19923;-87
2023/01/31 09:19:32;;;;;;;;;;;;;;;;;;4901605;29;19967;-89
2023/01/31 09:21:57;;;;;;;;;;;;;;;;;;4901477;29;20336;-88
2023/01/31 09:24:23;;;;;;;;;;;;;;;;;;4918093;29;19925;-91
2023/01/31 09:26:48;;;;;;;;;;;;;;;;;;4917971;29;19925;-86
2023/01/31 09:29:13;;;;;;;;;;;;;;;;;;4918021;29;20013;-86
2023/01/31 09:31:39;;;;;;;;;;;;;;;;;;4917545;29;19989;-87
2023/01/31 09:34:04;;;;;;;;;;;;;;;;;;4918167;29;19919;-86
2023/01/31 09:36:30;;;;;;;;;;;;;;;;;;4900770;29;19919;-84
2023/01/31 09:38:56;;;;;;;;;;;;;;;;;;4900842;29;19923;-87
2023/01/31 09:41:47;;;;;;;;;;;;;;;;;;4917729;29;19961;-87
2023/01/31 09:44:13;;;;;;;;;;;;;;;;;;4914659;29;20364;-86
2023/01/31 09:46:58;;;;;;;;;;;;;;;;;;4900692;29;19970;-86
2023/01/31 09:49:30;;;;;;;;;;;;;;;;;;4900194;29;19927;-85
2023/01/31 09:51:58;;;;;;;;;;;;;;;;;;4916191;29;19919;-86
2023/01/31 09:54:44;;;;;;;;;;;;;;;;;;4917388;29;19919;-88
2023/01/31 09:57:15;;;;;;;;;;;;;;;;;;4899991;29;19926;-88
2023/01/31 09:59:53;;;;;;;;;;;;;;;;;;4917613;29;19919;-83
2023/01/31 10:02:28;;;;;;;;;;;;;;;;;;4900120;29;19927;-90
2023/01/31 10:05:11;;;;;;;;;;;;;;;;;;4900298;29;19923;-89
2023/01/31 10:07:55;;;;;;;;;;;;;;;;;;4900448;29;19923;-86
2023/01/31 10:10:30;;;;;;;;;;;;;;;;;;4900491;29;19994;-86
2023/01/31 10:12:58;;;;;;;;;;;;;;;;;;4917270;29;19923;-87
2023/01/31 10:15:45;;;;;;;;;;;;;;;;;;4900004;29;19930;-88
2023/01/31 10:18:13;;;;;;;;;;;;;;;;;;4917268;29;19923;-85
2023/01/31 10:20:42;;;;;;;;;;;;;;;;;;4900206;29;19926;-86
2023/01/31 10:23:24;;;;;;;;;;;;;;;;;;4900131;29;19930;-90
2023/01/31 10:26:25;;;;;;;;;;;;;;;;;;4917262;29;19990;-85
2023/01/31 10:28:59;;;;;;;;;;;;;;;;;;4870795;29;19927;-86
2023/01/31 10:31:40;;;;;;;;;;;;;;;;;;4861947;29;20353;-86
2023/01/31 10:34:15;;;;;;;;;;;;;;;;;;4877470;29;20471;-85
2023/01/31 10:36:49;;;;;;;;;;;;;;;;;;4871044;29;19950;-85
2023/01/31 10:39:23;;;;;;;;;;;;;;;;;;4877710;29;19924;-86
2023/01/31 10:41:54;;;;;;;;;;;;;;;;;;4860048;29;20380;-85
2023/01/31 10:44:26;;;;;;;;;;;;;;;;;;4843227;29;19920;-84
2023/01/31 10:46:54;;;;;;;;;;;;;;;;;;4858781;29;19972;-87
2023/01/31 10:49:22;;;;;;;;;;;;;;;;;;4843279;29;19920;-85
2023/01/31 10:51:48;;;;;;;;;;;;;;;;;;4858682;29;20389;-85
2023/01/31 10:54:25;;;;;;;;;;;;;;;;;;4843205;29;19921;-87
2023/01/31 10:56:51;;;;;;;;;;;;;;;;;;4866289;29;19924;-85
2023/01/31 10:59:19;;;;;;;;;;;;;;;;;;4852057;29;19970;-86
2023/01/31 11:01:44;;;;;;;;;;;;;;;;;;4874152;29;19916;-88
2023/01/31 11:04:20;;;;;;;;;;;;;;;;;;4916962;29;19926;-89
2023/01/31 11:06:46;;;;;;;;;;;;;;;;;;4916858;29;20020;-90
2023/01/31 11:09:13;;;;;;;;;;;;;;;;;;4916806;29;19919;-89
2023/01/31 11:11:53;;;;;;;;;;;;;;;;;;4916799;29;19923;-89
2023/01/31 11:14:18;;;;;;;;;;;;;;;;;;4917946;29;19924;-90
2023/01/31 11:16:44;;;;;;;;;;;;;;;;;;4903212;29;19924;-90
2023/01/31 11:19:19;;;;;;;;;;;;;;;;;;4920183;29;19923;-89
2023/01/31 11:21:49;;;;;;;;;;;;;;;;;;4920502;29;19967;-87
2023/01/31 11:24:20;;;;;;;;;;;;;;;;;;4920551;29;20375;-89
2023/01/31 11:27:11;;;;;;;;;;;;;;;;;;4920593;29;20452;-92
2023/01/31 11:29:44;;;;;;;;;;;;;;;;;;4900460;29;20332;-88
2023/01/31 11:32:20;;;;;;;;;;;;;;;;;;4903249;29;19919;-87
2023/01/31 11:35:04;;;;;;;;;;;;;;;;;;4903458;29;19923;-86
2023/01/31 11:37:30;;;;;;;;;;;;;;;;;;4920327;29;19926;-86
2023/01/31 11:40:18;;;;;;;;;;;;;;;;;;4902942;29;19929;-86
2023/01/31 11:42:51;;;;;;;;;;;;;;;;;;4920122;29;19915;-87
2023/01/31 11:45:18;;;;;;;;;;;;;;;;;;4903204;29;19923;-86
2023/01/31 11:47:50;;;;;;;;;;;;;;;;;;4919914;29;19919;-89
2023/01/31 11:50:29;;;;;;;;;;;;;;;;;;4920240;29;19927;-89
2023/01/31 11:52:59;;;;;;;;;;;;;;;;;;4902796;29;19926;-89
2023/01/31 11:55:25;;;;;;;;;;;;;;;;;;4902739;29;19919;-91
2023/01/31 11:57:55;;;;;;;;;;;;;;;;;;4919702;29;19919;-86
2023/01/31 12:00:22;;;;;;;;;;;;;;;;;;4903079;29;19926;-90
2023/01/31 12:02:51;;;;;;;;;;;;;;;;;;4919477;29;19975;-87
2023/01/31 12:05:17;;;;;;;;;;;;;;;;;;4902422;29;19959;-92
2023/01/31 12:07:52;;;;;;;;;;;;;;;;;;4902837;29;20380;-88
2023/01/31 12:10:23;;;;;;;;;;;;;;;;;;4919732;29;20395;-90
2023/01/31 12:12:50;;;;;;;;;;;;;;;;;;4902258;29;19923;-85
2023/01/31 12:15:16;;;;;;;;;;;;;;;;;;4919054;29;19927;-85
2023/01/31 12:17:46;;;;;;;;;;;;;;;;;;4914078;29;20312;-89
2023/01/31 12:20:21;;;;;;;;;;;;;;;;;;4909099;29;19923;-86
2023/01/31 12:22:59;;;;;;;;;;;;;;;;;;4901526;29;19930;-87
2023/01/31 12:25:27;;;;;;;;;;;;;;;;;;4880411;29;19919;-85
2023/01/31 12:28:00;;;;;;;;;;;;;;;;;;4903729;29;19974;-85
2023/01/31 12:30:38;;;;;;;;;;;;;;;;;;4919100;29;19927;-87
2023/01/31 12:33:06;;;;;;;;;;;;;;;;;;4901907;29;19923;-86
2023/01/31 12:35:39;;;;;;;;;;;;;;;;;;4901809;29;19926;-85
2023/01/31 12:38:08;;;;;;;;;;;;;;;;;;4901773;29;19920;-86
2023/01/31 12:40:39;;;;;;;;;;;;;;;;;;4901885;29;20344;-89
2023/01/31 12:43:18;;;;;;;;;;;;;;;;;;4901588;29;19923;-84
2023/01/31 12:46:01;;;;;;;;;;;;;;;;;;4901740;29;20291;-85
2023/01/31 12:48:36;;;;;;;;;;;;;;;;;;4918732;29;20382;-86
2023/01/31 12:51:20;;;;;;;;;;;;;;;;;;4901573;29;19958;-87
2023/01/31 12:54:00;;;;;;;;;;;;;;;;;;4918626;29;19919;-85
2023/01/31 12:56:31;;;;;;;;;;;;;;;;;;4901549;29;20261;-86
2023/01/31 12:59:16;;;;;;;;;;;;;;;;;;4901572;29;19926;-84
2023/01/31 13:01:50;;;;;;;;;;;;;;;;;;4918657;29;19920;-85
2023/01/31 13:04:21;;;;;;;;;;;;;;;;;;4901385;29;19930;-84
2023/01/31 13:06:51;;;;;;;;;;;;;;;;;;4901432;29;19975;-85
2023/01/31 13:09:16;;;;;;;;;;;;;;;;;;4918511;29;19930;-85
2023/01/31 13:12:02;;;;;;;;;;;;;;;;;;4901816;29;19919;-86
2023/01/31 13:14:30;;;;;;;;;;;;;;;;;;4893074;29;19919;-86
2023/01/31 13:16:58;;;;;;;;;;;;;;;;;;4918549;29;20006;-85
2023/01/31 13:19:27;;;;;;;;;;;;;;;;;;4902302;29;19919;-86
2023/01/31 13:21:56;;;;;;;;;;;;;;;;;;4902131;29;19919;-86
2023/01/31 13:24:24;;;;;;;;;;;;;;;;;;4901609;29;19919;-85
2023/01/31 13:27:01;;;;;;;;;;;;;;;;;;4901562;29;19919;-87
2023/01/31 13:29:30;;;;;;;;;;;;;;;;;;4917991;29;20379;-89
2023/01/31 13:32:00;;;;;;;;;;;;;;;;;;4901041;29;19926;-86
2023/01/31 13:34:47;;;;;;;;;;;;;;;;;;4918079;29;19915;-85
2023/01/31 13:37:19;;;;;;;;;;;;;;;;;;4902674;29;19923;-86
2023/01/31 13:39:48;;;;;;;;;;;;;;;;;;4895501;29;19919;-85
2023/01/31 13:42:14;;;;;;;;;;;;;;;;;;4913209;29;19930;-87
2023/01/31 13:44:40;;;;;;;;;;;;;;;;;;4921750;29;19973;-85
2023/01/31 13:47:19;;;;;;;;;;;;;;;;;;4932591;29;19930;-89
2023/01/31 13:49:51;;;;;;;;;;;;;;;;;;4912683;29;19919;-90
2023/01/31 13:52:27;;;;;;;;;;;;;;;;;;4903134;29;20375;-88
2023/01/31 13:54:56;;;;;;;;;;;;;;;;;;4913439;29;20450;-88
2023/01/31 13:57:24;;;;;;;;;;;;;;;;;;4919179;29;19979;-86
2023/01/31 13:59:54;;;;;;;;;;;;;;;;;;4919160;29;20074;-90
2023/01/31 14:02:19;;;;;;;;;;;;;;;;;;4904249;29;19923;-93
2023/01/31 14:04:46;;;;;;;;;;;;;;;;;;4939900;29;19923;-88
2023/01/31 14:07:12;;;;;;;;;;;;;;;;;;4923843;29;19929;-92
2023/01/31 14:09:44;;;;;;;;;;;;;;;;;;4937629;29;19919;-88
2023/01/31 14:12:16;;;;;;;;;;;;;;;;;;4919809;29;20313;-89
2023/01/31 14:14:46;;;;;;;;;;;;;;;;;;4920482;29;19918;-90
2023/01/31 14:17:12;;;;;;;;;;;;;;;;;;4913041;29;20387;-90
2023/01/31 14:19:48;;;;;;;;;;;;;;;;;;4901538;29;19926;-89
2023/01/31 14:22:15;;;;;;;;;;;;;;;;;;4903024;29;19923;-92
2023/01/31 14:24:51;;;;;;;;;;;;;;;;;;4901541;29;19966;-93
2023/01/31 14:27:26;;;;;;;;;;;;;;;;;;4901297;29;19978;-92
2023/01/31 14:30:09;;;;;;;;;;;;;;;;;;4901595;29;20010;-92
2023/01/31 14:32:38;;;;;;;;;;;;;;;;;;4918353;29;19930;-90
2023/01/31 14:35:13;;;;;;;;;;;;;;;;;;4918168;29;19975;-93
2023/01/31 14:37:44;;;;;;;;;;;;;;;;;;4901387;29;20354;-92
2023/01/31 14:40:09;;;;;;;;;;;;;;;;;;4900831;29;20010;-93
2023/01/31 14:42:58;;;;;;;;;;;;;;;;;;4902281;29;20360;-94
2023/01/31 14:45:32;;;;;;;;;;;;;;;;;;4901343;29;19919;-92
2023/01/31 14:48:04;;;;;;;;;;;;;;;;;;4923100;29;20014;-91
2023/01/31 14:50:48;;;;;;;;;;;;;;;;;;4907368;29;20377;-94
2023/01/31 14:53:32;;;;;;;;;;;;;;;;;;4923845;29;20368;-91
2023/01/31 14:56:15;;;;;;;;;;;;;;;;;;4927397;29;19962;-91
2023/01/31 14:58:42;;;;;;;;;;;;;;;;;;4928363;29;20368;-92
2023/01/31 15:01:08;;;;;;;;;;;;;;;;;;4925870;29;19919;-90
2023/01/31 15:03:53;;;;;;;;;;;;;;;;;;4943346;29;19923;-88
2023/01/31 15:06:27;;;;;;;;;;;;;;;;;;4939521;29;19958;-85
2023/01/31 15:09:11;;;;;;;;;;;;;;;;;;4939844;29;19946;-84
2023/01/31 15:11:39;;;;;;;;;;;;;;;;;;4922107;29;19985;-88
2023/01/31 15:14:23;;;;;;;;;;;;;;;;;;4939632;29;19919;-90
2023/01/31 15:16:54;;;;;;;;;;;;;;;;;;4922006;29;20447;-87
2023/01/31 15:19:23;;;;;;;;;;;;;;;;;;4922475;29;19923;-89
2023/01/31 15:21:50;;;;;;;;;;;;;;;;;;4939395;29;19922;-85
2023/01/31 15:24:19;;;;;;;;;;;;;;;;;;4939392;29;19974;-89
2023/01/31 15:26:45;;;;;;;;;;;;;;;;;;4939246;29;20348;-87
2023/01/31 15:29:34;;;;;;;;;;;;;;;;;;4922392;29;19930;-86
2023/01/31 15:32:04;;;;;;;;;;;;;;;;;;4895454;29;19922;-86
2023/01/31 15:34:32;;;;;;;;;;;;;;;;;;4939320;29;19919;-89
2023/01/31 15:37:20;;;;;;;;;;;;;;;;;;4921839;29;20286;-89
2023/01/31 15:39:54;;;;;;;;;;;;;;;;;;4939201;29;20263;-90
2023/01/31 15:42:22;;;;;;;;;;;;;;;;;;4938694;29;19929;-89
2023/01/31 15:44:47;;;;;;;;;;;;;;;;;;4939085;29;19918;-84
2023/01/31 15:47:21;;;;;;;;;;;;;;;;;;4938674;29;19978;-88
2023/01/31 15:49:46;;;;;;;;;;;;;;;;;;4931774;29;19926;-87
2023/01/31 15:52:15;;;;;;;;;;;;;;;;;;4921499;29;20013;-86
2023/01/31 15:54:54;;;;;;;;;;;;;;;;;;4938932;29;20013;-87
2023/01/31 15:57:21;;;;;;;;;;;;;;;;;;4938362;29;19922;-87
2023/01/31 15:59:47;;;;;;;;;;;;;;;;;;4938086;29;19922;-86
2023/01/31 16:02:36;;;;;;;;;;;;;;;;;;4938228;29;19996;-88
2023/01/31 16:05:05;;;;;;;;;;;;;;;;;;4938545;29;19919;-83
2023/01/31 16:07:31;;;;;;;;;;;;;;;;;;4938129;29;19923;-83
2023/01/31 16:09:57;;;;;;;;;;;;;;;;;;4938255;29;19926;-83
2023/01/31 16:12:23;;;;;;;;;;;;;;;;;;4938011;29;20299;-85
2023/01/31 16:14:50;;;;;;;;;;;;;;;;;;4938426;29;19919;-84
2023/01/31 16:17:15;;;;;;;;;;;;;;;;;;4935079;29;20369;-85
2023/01/31 16:19:41;;;;;;;;;;;;;;;;;;4920407;29;19955;-85
2023/01/31 16:22:36;;;;;;;;;;;;;;;;;;4920811;29;19927;-87
2023/01/31 16:25:02;;;;;;;;;;;;;;;;;;4890194;29;19962;-88
2023/01/31 16:27:30;;;;;;;;;;;;;;;;;;4902025;29;20378;-85
2023/01/31 16:29:57;;;;;;;;;;;;;;;;;;4918761;29;19942;-84
2023/01/31 16:32:30;;;;;;;;;;;;;;;;;;4918874;29;19923;-83
2023/01/31 16:34:59;;;;;;;;;;;;;;;;;;4918750;29;19923;-85
2023/01/31 16:37:32;;;;;;;;;;;;;;;;;;4918771;29;19971;-82
2023/01/31 16:39:59;;;;;;;;;;;;;;;;;;4901725;29;19919;-85
2023/01/31 16:42:28;;;;;;;;;;;;;;;;;;4911899;29;19927;-85
2023/01/31 16:44:53;;;;;;;;;;;;;;;;;;4937649;29;19925;-82
2023/01/31 16:47:31;;;;;;;;;;;;;;;;;;4937213;29;19923;-83
2023/01/31 16:50:15;;;;;;;;;;;;;;;;;;4937925;29;20438;-85
2023/01/31 16:52:41;;;;;;;;;;;;;;;;;;4937346;29;19930;-84
2023/01/31 16:55:12;;;;;;;;;;;;;;;;;;4920302;29;19923;-84
2023/01/31 16:57:37;;;;;;;;;;;;;;;;;;4937309;29;20416;-83
2023/01/31 17:00:04;;;;;;;;;;;;;;;;;;4937355;29;20005;-85
2023/01/31 17:02:34;;;;;;;;;;;;;;;;;;4937013;29;19922;-83
2023/01/31 17:05:19;;;;;;;;;;;;;;;;;;4937396;29;19919;-83
2023/01/31 17:07:47;;;;;;;;;;;;;;;;;;4926591;29;20276;-83
2023/01/31 17:10:33;;;;;;;;;;;;;;;;;;4919999;29;19919;-85
2023/01/31 17:13:08;;;;;;;;;;;;;;;;;;4935570;29;20371;-82
2023/01/31 17:15:34;;;;;;;;;;;;;;;;;;4936790;29;19922;-83
2023/01/31 17:17:59;;;;;;;;;;;;;;;;;;4936800;29;19922;-84
2023/01/31 17:20:25;;;;;;;;;;;;;;;;;;4937080;29;19919;-83